Skip to main content

NOAA/GLERL Met Station at Chicago, IL

Previous 3 Hours (2 minute increments)
See also Previous 5 Days (top of hour)
Jump down to Data
Switch to [English][Metric]
Zoom: Click and drag, Pan: shift-click and drag, Unzoom: double-click, Unzoom All




See also 1-day windrose plot


NOAA/GLERL Met Station at Chicago, IL

Previous 3 Hours (2 minute increments)
See also Previous 5 Days (top of hour only)
Jump up to Graphs
Switch to [English][Metric]
                  Wind  Wind  Wind   Air   Dew   Rel
                   Spd   Gst   Dir  Temp    Pt   Hum
YYYY-MM-DD   CST   kts   kts   deg     F     F     %
2021-02-27 15:36  13.6  15.6   158  43.3  37.5  79.7
2021-02-27 15:34  13.4  14.6   154  44.1  37.5  77.5
2021-02-27 15:32  14.4  15.6   157  45.1  38.2  76.4
2021-02-27 15:30  14.6  15.9   161  45.1  38.6  77.5
2021-02-27 15:28  15.2  17.1   162  44.8  38.1  77.3
2021-02-27 15:26  15.6  16.9   157  45.3  38.1  75.6
2021-02-27 15:24  14.6  16.9   160  46.2  38.3  73.5
2021-02-27 15:22  13.8  16.1   165  46.8  38.7  73.3
2021-02-27 15:20  15.0  17.3   163  46.4  38.4  73.5
2021-02-27 15:18  13.8  15.7   164  47.1  38.4  71.5
2021-02-27 15:16  12.8  14.2   160  47.5  38.2  70.0
2021-02-27 15:14  11.5  14.4   167  47.8  38.3  69.1
2021-02-27 15:12  13.0  15.0   165  47.7  38.3  69.7
2021-02-27 15:10  12.8  15.7   166  46.9  38.2  71.2
2021-02-27 15:08  12.6  15.6   165  47.1  38.2  70.8
2021-02-27 15:06  10.9  13.4   161  46.8  38.1  71.6
2021-02-27 15:04  11.5  13.4   160  47.1  37.8  69.8
2021-02-27 15:02  11.9  12.8   166  47.3  38.0  69.7
2021-02-27 15:00  12.4  13.0   168  46.9  37.7  69.9
2021-02-27 14:58  12.2  13.0   167  46.9  37.9  70.5
2021-02-27 14:56  11.7  13.2   163  46.9  37.7  69.9
2021-02-27 14:54  11.1  12.6   163  47.7  37.9  68.7
2021-02-27 14:52  11.7  12.4   170  47.5  38.0  69.3
2021-02-27 14:50  12.8  13.6   171  47.1  38.0  70.3
2021-02-27 14:48  12.8  13.6   169  47.3  38.0  69.8
2021-02-27 14:46  10.5  12.6   164  47.1  37.8  69.7
2021-02-27 14:44  11.1  12.8   166  48.4  37.9  66.7
2021-02-27 14:42  10.7  12.8   169  48.9  38.2  66.2
2021-02-27 14:40  10.5  12.1   163  48.7  38.2  66.5
2021-02-27 14:38  12.1  13.0   164  48.2  38.1  67.8
2021-02-27 14:36  12.1  12.8   167  48.2  38.1  67.6
2021-02-27 14:34  11.3  13.4   167  48.0  38.2  68.4
2021-02-27 14:32  11.3  13.0   165  48.4  38.0  67.1
2021-02-27 14:30  11.7  13.0   164  48.4  38.2  67.6
2021-02-27 14:28  11.5  12.8   167  47.8  38.2  68.8
2021-02-27 14:26  12.1  12.6   167  46.9  38.3  71.6
2021-02-27 14:24  12.1  13.8   165  46.8  38.2  71.9
2021-02-27 14:22  12.4  14.2   167  46.0  38.2  73.8
2021-02-27 14:20  12.4  14.4   161  45.7  37.5  72.9
2021-02-27 14:18  12.2  13.0   160  46.9  38.0  70.7
2021-02-27 14:16  10.9  12.2   163  47.1  38.0  70.2
2021-02-27 14:14  10.9  11.9   167  47.5  38.0  69.2
2021-02-27 14:12  10.1  11.3   165  47.3  38.0  69.7
2021-02-27 14:10  10.5  11.3   168  47.1  38.2  70.7
2021-02-27 14:08  11.1  12.1   166  46.6  38.0  71.7
2021-02-27 14:06  10.9  12.2   166  47.1  37.7  69.4
2021-02-27 14:04  10.7  11.7   165  47.5  37.9  69.1
2021-02-27 14:02  11.1  12.8   168  47.1  37.7  69.5
2021-02-27 14:00  11.3  12.2   168  46.8  37.8  70.6
2021-02-27 13:58  10.3  11.3   166  46.8  37.5  69.9
2021-02-27 13:56  11.1  12.1   167  47.3  37.7  68.9
2021-02-27 13:54   9.9  11.3   170  46.9  37.3  68.9
2021-02-27 13:52  10.9  12.8   167  46.6  37.2  69.5
2021-02-27 13:50   9.5  10.7   161  46.4  36.8  68.9
2021-02-27 13:48   8.7  10.5   162  47.1  36.8  67.1
2021-02-27 13:46  10.3  11.1   170  47.1  37.2  68.1
2021-02-27 13:44   8.6  10.3   163  47.3  36.8  66.7
2021-02-27 13:42  10.3  11.5   168  48.0  37.2  65.8
2021-02-27 13:40  10.9  11.9   168  47.8  37.3  66.4
2021-02-27 13:38  10.7  11.7   165  47.7  37.2  66.6
2021-02-27 13:36  11.3  12.1   168  47.8  37.3  66.5
2021-02-27 13:34  11.1  11.9   168  48.0  37.3  66.2
2021-02-27 13:32  11.5  12.6   171  47.5  37.2  67.2
2021-02-27 13:30  10.1  11.1   163  47.7  37.0  66.3
2021-02-27 13:28   9.5  10.9   167  48.0  37.1  65.5
2021-02-27 13:26  11.3  11.7   171  47.1  37.1  67.7
2021-02-27 13:24   8.9  10.9   168  47.8  36.8  65.3
2021-02-27 13:22   9.5   9.9   178  48.2  37.1  65.1
2021-02-27 13:20  10.3  11.1   178  47.7  37.3  67.0
2021-02-27 13:18   9.1  10.3   175  46.6  37.2  69.4
2021-02-27 13:16   8.7  10.1   172  46.2  37.5  71.3
2021-02-27 13:14   7.4   9.3   166  45.3  37.0  72.4
2021-02-27 13:12   7.4   8.6   170  45.5  37.2  72.3
2021-02-27 13:10   6.6   8.4   166  46.0  37.0  70.3
2021-02-27 13:08   5.4   8.4   165  47.1  36.9  67.2
2021-02-27 13:06   8.7   9.3   173  47.1  37.3  68.5
2021-02-27 13:04   8.2   9.3   175  46.8  37.3  69.2
2021-02-27 13:02   7.0   7.8   180  47.7  37.3  66.9
2021-02-27 13:00   7.6   8.0   184  48.0  37.1  65.6
2021-02-27 12:58   8.4   8.9   184  47.7  37.0  66.2
2021-02-27 12:56   6.8   8.0   173  48.0  37.5  66.5
2021-02-27 12:54   5.2   6.2   167  48.2  37.1  65.1
2021-02-27 12:52   7.4   8.2   173  47.8  36.9  65.4
2021-02-27 12:50   7.8   8.4   178  47.8  37.0  65.7
2021-02-27 12:48   7.6   8.2   178  47.7  37.0  66.3
2021-02-27 12:46   7.6   8.0   178  47.5  37.2  67.3
2021-02-27 12:44   6.4   7.4   179  47.5  37.1  67.0
2021-02-27 12:42   7.4   8.6   182  46.9  37.2  68.7
2021-02-27 12:40   7.8   8.4   178  46.9  37.3  68.8
2021-02-27 12:38   6.8   8.0   173  46.9  37.3  68.9
2021-02-27 12:36   6.2   6.8   172  47.1  37.5  68.9